Time;durP1;ratioP1;P1;durP2;ratioP2;P2;SDS_P1;SDS_P2;PMS_P1;PMS_P2;Temp;Humidity;BMP_temperature;BMP_pressure;BME280_temperature;BME280_humidity;BME280_pressure;Samples;Min_cycle;Max_cycle;Signal;HPM_P1;HPM_P2
2021/03/24 00:02:18;;;;;;;2.47;0.50;;;;;;;7.20;100.00;100097.50;5009799;28;20665;-79
2021/03/24 00:05:27;;;;;;;5.15;0.82;;;;;;;7.23;100.00;100093.84;5010201;28;20072;-78
2021/03/24 00:08:31;;;;;;;3.92;1.13;;;;;;;7.28;100.00;100090.50;5009230;28;20061;-78
2021/03/24 00:11:36;;;;;;;9.98;1.02;;;;;;;7.29;100.00;100091.28;5010490;28;20080;-78
2021/03/24 00:14:40;;;;;;;6.03;1.30;;;;;;;7.36;100.00;100093.81;5010542;28;20065;-78
2021/03/24 00:17:44;;;;;;;3.75;1.02;;;;;;;7.37;100.00;100093.34;5012534;28;20073;-78
2021/03/24 00:20:48;;;;;;;3.85;1.27;;;;;;;7.38;100.00;100091.38;5012086;28;20069;-79
2021/03/24 00:23:51;;;;;;;6.90;1.63;;;;;;;7.39;100.00;100082.59;5010026;28;20069;-78
2021/03/24 00:26:55;;;;;;;11.80;1.55;;;;;;;7.40;100.00;100084.16;5010232;28;20061;-80
2021/03/24 00:29:59;;;;;;;2.08;0.95;;;;;;;7.42;100.00;100089.25;5009818;28;20061;-79
2021/03/24 00:33:03;;;;;;;1.92;0.95;;;;;;;7.37;100.00;100085.03;5010044;28;20061;-78
2021/03/24 00:36:07;;;;;;;2.25;0.98;;;;;;;7.35;100.00;100087.50;5009372;28;20064;-79
2021/03/24 00:39:10;;;;;;;4.72;1.15;;;;;;;7.36;100.00;100077.94;5009664;28;20077;-77
2021/03/24 00:42:13;;;;;;;3.83;1.50;;;;;;;7.36;100.00;100079.97;5009505;28;20069;-78
2021/03/24 00:45:17;;;;;;;3.53;0.95;;;;;;;7.35;100.00;100083.94;5009564;28;20069;-77
2021/03/24 00:48:23;;;;;;;1.08;0.70;;;;;;;7.36;100.00;100089.03;5008996;28;20061;-77
2021/03/24 00:51:26;;;;;;;5.18;1.05;;;;;;;7.25;100.00;100083.09;5009579;28;20447;-78
2021/03/24 00:54:29;;;;;;;2.38;0.77;;;;;;;7.23;100.00;100090.31;5008753;28;20416;-78
2021/03/24 00:57:33;;;;;;;10.27;0.60;;;;;;;7.15;100.00;100078.66;5007690;28;20057;-78
2021/03/24 01:00:39;;;;;;;6.13;1.65;;;;;;;7.11;100.00;100083.56;5007445;28;20057;-77
2021/03/24 01:03:42;;;;;;;1.58;0.98;;;;;;;7.09;100.00;100080.47;5007575;28;20057;-79
2021/03/24 01:06:46;;;;;;;7.55;1.15;;;;;;;7.06;100.00;100075.06;5007593;28;20089;-77
2021/03/24 01:09:49;;;;;;;2.13;1.10;;;;;;;7.02;100.00;100080.69;5007472;28;20053;-79
2021/03/24 01:12:54;;;;;;;2.88;1.45;;;;;;;7.03;100.00;100079.47;5007737;28;20065;-79
2021/03/24 01:15:57;;;;;;;3.20;1.95;;;;;;;7.05;100.00;100071.50;5007013;28;20432;-77
2021/03/24 01:19:02;;;;;;;4.97;2.20;;;;;;;7.05;100.00;100070.72;5007285;28;20057;-78
2021/03/24 01:22:05;;;;;;;8.05;1.98;;;;;;;7.04;100.00;100066.41;5011478;28;20412;-78
2021/03/24 01:25:10;;;;;;;3.55;1.67;;;;;;;7.03;100.00;100062.88;5011005;28;20080;-78
2021/03/24 01:28:20;;;;;;;4.18;2.58;;;;;;;7.01;100.00;100068.09;5010953;28;20069;-78
2021/03/24 01:31:28;;;;;;;3.45;1.45;;;;;;;7.02;100.00;100063.31;5001317;28;20544;-78
2021/03/24 01:34:32;;;;;;;3.55;1.67;;;;;;;7.00;100.00;100065.75;4991396;28;20053;-78
2021/03/24 01:37:39;;;;;;;3.78;1.42;;;;;;;6.99;100.00;100065.00;4972261;28;20063;-78
2021/03/24 01:40:53;;;;;;;4.05;1.38;;;;;;;6.97;100.00;100066.66;4972217;28;20062;-77
2021/03/24 01:43:57;;;;;;;5.43;1.60;;;;;;;6.96;100.00;100054.78;4995511;28;20070;-77
2021/03/24 01:47:00;;;;;;;2.80;1.77;;;;;;;6.96;100.00;100052.03;4971688;28;20556;-78
2021/03/24 01:50:14;;;;;;;8.57;1.92;;;;;;;6.96;100.00;100049.25;4971140;28;20078;-77
2021/03/24 01:53:18;;;;;;;10.65;2.00;;;;;;;6.92;100.00;100042.28;4973126;28;20070;-79
2021/03/24 01:56:23;;;;;;;9.40;1.63;;;;;;;6.91;100.00;100046.28;4971542;28;20135;-79
2021/03/24 01:59:26;;;;;;;2.25;1.75;;;;;;;6.88;100.00;100042.41;4971453;28;20065;-79
2021/03/24 02:02:36;;;;;;;3.92;1.55;;;;;;;6.82;100.00;100038.66;4970385;28;20061;-79
2021/03/24 02:05:43;;;;;;;6.72;2.47;;;;;;;6.74;100.00;100040.88;4971632;28;20081;-78
2021/03/24 02:08:54;;;;;;;5.78;1.98;;;;;;;6.70;100.00;100028.38;4972050;28;20058;-80
2021/03/24 02:12:06;;;;;;;15.63;2.97;;;;;;;6.70;100.00;100034.69;4971028;28;20058;-82
2021/03/24 02:15:19;;;;;;;4.30;1.70;;;;;;;6.67;100.00;100032.06;4973405;28;20057;-80
2021/03/24 02:18:26;;;;;;;11.75;3.83;;;;;;;6.66;100.00;100033.25;4972420;28;20065;-83
2021/03/24 02:21:38;;;;;;;2.45;1.08;;;;;;;6.62;100.00;100032.59;4973411;28;20061;-82
2021/03/24 02:25:06;;;;;;;5.82;2.22;;;;;;;6.55;100.00;100024.53;4973818;28;20074;-79
2021/03/24 02:28:13;;;;;;;4.47;2.55;;;;;;;6.49;100.00;100020.75;4973319;28;20416;-83
2021/03/24 02:31:21;;;;;;;8.07;2.60;;;;;;;6.40;100.00;100028.94;4968001;28;20065;-87
2021/03/24 02:34:27;;;;;;;8.15;3.10;;;;;;;6.27;100.00;100020.66;4950512;28;20674;-86
2021/03/24 02:37:34;;;;;;;19.17;2.28;;;;;;;6.16;100.00;100024.94;4948147;28;20508;-87
2021/03/24 02:40:41;;;;;;;1.90;1.75;;;;;;;6.07;100.00;100022.84;4946008;28;20058;-88
2021/03/24 02:43:45;;;;;;;5.00;2.53;;;;;;;6.03;100.00;100022.97;4948602;28;20506;-88
2021/03/24 02:46:49;;;;;;;9.60;2.58;;;;;;;6.10;100.00;100022.75;4965283;28;20265;-88
2021/03/24 02:49:53;;;;;;;4.03;3.00;;;;;;;6.15;100.00;100012.38;4966019;28;20069;-88
2021/03/24 02:53:01;;;;;;;4.35;1.80;;;;;;;6.23;100.00;100019.22;4965893;28;20062;-87
2021/03/24 02:56:08;;;;;;;5.07;1.80;;;;;;;6.30;100.00;100021.78;4966264;28;20326;-87
2021/03/24 02:59:14;;;;;;;9.75;3.47;;;;;;;6.33;100.00;100018.09;4966016;28;20057;-87
2021/03/24 03:02:25;;;;;;;4.88;3.15;;;;;;;6.34;100.00;100019.66;4949729;28;20062;-87
2021/03/24 03:05:33;;;;;;;5.80;2.03;;;;;;;6.38;100.00;100017.56;4945380;28;20123;-87
2021/03/24 03:08:42;;;;;;;4.85;2.45;;;;;;;6.42;100.00;100015.44;4945728;28;20058;-88
2021/03/24 03:12:10;;;;;;;3.22;2.28;;;;;;;6.47;100.00;100012.91;4966776;28;20136;-88
2021/03/24 03:15:29;;;;;;;13.48;2.22;;;;;;;6.50;100.00;100008.47;4943607;28;20612;-88
2021/03/24 03:18:39;;;;;;;5.32;1.73;;;;;;;6.46;100.00;100005.03;4966558;28;20066;-89
2021/03/24 03:21:51;;;;;;;4.43;1.90;;;;;;;6.48;100.00;100006.16;4943399;28;20721;-89
2021/03/24 03:24:59;;;;;;;7.43;2.38;;;;;;;6.49;100.00;99998.63;4944225;28;20180;-87
2021/03/24 03:28:07;;;;;;;4.35;2.65;;;;;;;6.48;100.00;100003.38;4941897;28;20058;-86
2021/03/24 03:31:18;;;;;;;5.65;2.33;;;;;;;6.43;100.00;99994.88;4943443;28;20073;-88
2021/03/24 03:34:26;;;;;;;4.57;2.10;;;;;;;6.40;100.00;100001.28;4941635;28;20065;-87
2021/03/24 03:37:30;;;;;;;5.03;2.15;;;;;;;6.33;100.00;99995.97;4942307;28;20066;-87
2021/03/24 03:40:36;;;;;;;10.85;2.85;;;;;;;6.30;100.00;99992.13;4944026;28;20057;-87
2021/03/24 03:43:41;;;;;;;2.72;1.70;;;;;;;6.29;100.00;99989.78;4943661;28;21091;-86
2021/03/24 03:46:51;;;;;;;7.82;2.70;;;;;;;6.22;100.00;99990.00;4942487;28;20053;-87
2021/03/24 03:49:55;;;;;;;10.50;1.92;;;;;;;6.23;100.00;99980.50;4941025;28;20061;-86
2021/03/24 03:53:17;;;;;;;4.57;1.80;;;;;;;6.31;100.00;99981.81;4942512;28;20061;-87
2021/03/24 03:56:31;;;;;;;4.13;1.77;;;;;;;6.32;100.00;99980.63;4943874;28;20099;-87
2021/03/24 03:59:42;;;;;;;11.43;2.13;;;;;;;6.34;100.00;99976.19;4945951;28;20053;-87
2021/03/24 04:03:01;;;;;;;10.15;1.58;;;;;;;6.34;100.00;99973.44;4970041;28;20066;-87
2021/03/24 04:06:10;;;;;;;7.38;1.50;;;;;;;6.34;100.00;99976.19;4944173;28;20196;-87
2021/03/24 04:09:14;;;;;;;4.63;1.60;;;;;;;6.34;100.00;99972.66;4942624;28;20054;-87
2021/03/24 04:12:19;;;;;;;2.17;1.65;;;;;;;6.33;100.00;99971.09;4943270;28;20065;-88
2021/03/24 04:15:24;;;;;;;4.43;2.15;;;;;;;6.29;100.00;99973.97;4936474;28;20062;-88
2021/03/24 04:18:40;;;;;;;3.08;1.90;;;;;;;6.29;100.00;99978.72;4942179;28;20141;-86
2021/03/24 04:21:50;;;;;;;2.47;1.80;;;;;;;6.31;100.00;99970.75;4951877;28;20089;-87
2021/03/24 04:24:55;;;;;;;4.63;2.67;;;;;;;6.31;100.00;99976.28;4951342;28;20062;-87
2021/03/24 04:28:02;;;;;;;7.05;1.70;;;;;;;6.33;100.00;99969.09;4955684;28;20057;-86
2021/03/24 04:31:09;;;;;;;5.40;2.30;;;;;;;6.37;100.00;99966.22;4946153;28;20078;-86
2021/03/24 04:34:14;;;;;;;4.72;1.30;;;;;;;6.40;100.00;99962.56;4963346;28;20061;-86
2021/03/24 04:37:34;;;;;;;9.60;3.05;;;;;;;6.42;100.00;99965.66;4953011;28;20062;-87
2021/03/24 04:40:48;;;;;;;3.85;1.75;;;;;;;6.45;100.00;99964.78;4944781;28;20069;-86
2021/03/24 04:44:01;;;;;;;7.13;2.15;;;;;;;6.43;100.00;99964.47;4942541;28;20065;-86
2021/03/24 04:47:31;;;;;;;11.82;1.98;;;;;;;6.41;100.00;99966.91;4943279;28;20234;-86
2021/03/24 04:50:39;;;;;;;2.90;1.42;;;;;;;6.42;100.00;99960.91;4960962;28;20053;-88
2021/03/24 04:53:47;;;;;;;2.90;1.65;;;;;;;6.42;100.00;99960.91;4961917;28;20762;-85
2021/03/24 04:56:55;;;;;;;3.65;1.67;;;;;;;6.44;100.00;99957.69;4964857;28;20092;-86
2021/03/24 05:00:09;;;;;;;6.82;2.22;;;;;;;6.40;100.00;99965.34;4965673;28;20061;-85
2021/03/24 05:03:18;;;;;;;9.60;2.55;;;;;;;6.40;100.00;99968.09;4965388;28;20061;-86
2021/03/24 05:06:26;;;;;;;3.25;2.20;;;;;;;6.39;100.00;99964.56;4962001;28;20810;-86
2021/03/24 05:09:29;;;;;;;3.88;1.85;;;;;;;6.40;100.00;99971.66;4961732;28;20393;-86
2021/03/24 05:12:41;;;;;;;2.00;1.80;;;;;;;6.41;100.00;99966.91;4962199;28;20547;-85
2021/03/24 05:15:56;;;;;;;6.75;2.00;;;;;;;6.43;100.00;99964.47;4962892;28;20792;-87
2021/03/24 05:19:00;;;;;;;1.83;1.60;;;;;;;6.47;100.00;99967.88;4994118;28;20065;-86
2021/03/24 05:22:22;;;;;;;4.28;1.98;;;;;;;6.53;100.00;99966.09;4994021;28;20098;-86
2021/03/24 05:25:35;;;;;;;6.20;1.80;;;;;;;6.58;100.00;99969.06;4992089;28;20065;-83
2021/03/24 05:28:42;;;;;;;4.57;1.58;;;;;;;6.61;100.00;99968.19;4996473;28;20459;-80
2021/03/24 05:31:50;;;;;;;3.25;2.08;;;;;;;6.66;100.00;99959.31;5004748;28;20634;-81
2021/03/24 05:34:57;;;;;;;1.30;1.02;;;;;;;6.69;100.00;99965.97;4994227;28;20051;-80
2021/03/24 05:38:07;;;;;;;1.45;0.90;;;;;;;6.67;100.00;99971.16;5013079;28;20061;-79
2021/03/24 05:41:23;;;;;;;6.57;1.67;;;;;;;6.68;100.00;99979.03;5013104;28;20114;-79
2021/03/24 05:44:47;;;;;;;5.00;2.45;;;;;;;6.68;100.00;99981.78;5012398;28;20077;-80
2021/03/24 05:48:33;;;;;;;5.70;2.40;;;;;;;6.67;100.00;99987.78;5012878;28;20073;-79
2021/03/24 05:51:44;;;;;;;3.58;2.10;;;;;;;6.64;100.00;99999.72;5012170;28;20073;-80
2021/03/24 05:55:05;;;;;;;4.72;1.95;;;;;;;6.60;100.00;100004.59;5012768;28;20065;-81
2021/03/24 05:58:13;;;;;;;8.13;2.40;;;;;;;6.56;100.00;99999.16;5012761;28;20061;-81
2021/03/24 06:01:25;;;;;;;3.00;1.48;;;;;;;6.54;100.00;100007.13;5012534;28;20526;-82
2021/03/24 06:04:34;;;;;;;3.08;1.55;;;;;;;6.52;100.00;100017.88;5011686;28;20061;-81
2021/03/24 06:07:57;;;;;;;5.00;1.95;;;;;;;6.48;100.00;100019.19;5011657;28;20061;-82
2021/03/24 06:11:31;;;;;;;4.70;1.10;;;;;;;6.40;100.00;100023.41;5012361;28;20068;-81
2021/03/24 06:14:59;;;;;;;1.48;0.75;;;;;;;6.32;100.00;100031.19;5017099;28;20108;-80
2021/03/24 06:18:49;;;;;;;0.32;0.32;;;;;;;6.25;100.00;100036.13;5013508;28;20451;-79
2021/03/24 06:22:16;;;;;;;0.73;0.52;;;;;;;6.16;100.00;100036.00;5011608;28;20076;-80
2021/03/24 06:25:34;;;;;;;1.95;0.93;;;;;;;6.12;100.00;100033.38;5012136;28;20069;-81
2021/03/24 06:28:43;;;;;;;0.90;0.40;;;;;;;6.13;100.00;100026.59;5012185;28;20057;-81
2021/03/24 10:17:00;;;;;;;4.28;0.70;;;;;;;9.96;100.00;100099.41;5089742;27;20664;-79
2021/03/24 10:20:16;;;;;;;;;;;;;;;9.69;100.00;100100.19;5089297;28;20051;-79
2021/03/24 10:23:35;;;;;;;1.30;0.57;;;;;;;9.61;100.00;100100.94;5088762;28;19912;-79
2021/03/24 10:26:55;;;;;;;3.88;0.30;;;;;;;9.67;100.00;100104.66;5088627;28;20043;-79
2021/03/24 10:29:58;;;;;;;3.15;0.43;;;;;;;9.82;100.00;100092.44;5088709;28;20051;-79
2021/03/24 10:33:31;;;;;;;2.45;0.88;;;;;;;9.83;100.00;100096.75;5088550;28;20058;-78
2021/03/24 10:36:42;;;;;;;0.80;0.30;;;;;;;9.80;100.00;100102.47;5081043;28;20396;-78
2021/03/24 10:40:00;;;;;;;1.02;0.40;;;;;;;9.70;100.00;100114.84;5089135;28;20042;-79
2021/03/24 10:43:25;;;;;;;0.68;0.43;;;;;;;9.69;100.00;100113.28;5088555;28;20055;-79
2021/03/24 10:46:39;;;;;;;0.17;0.10;;;;;;;9.77;100.00;100106.97;5088772;28;20495;-78
2021/03/24 10:49:54;;;;;;;0.30;0.10;;;;;;;9.81;100.00;100106.81;5088167;28;20067;-79
2021/03/24 10:52:57;;;;;;;0.90;0.30;;;;;;;9.77;100.00;100104.19;5088324;28;20051;-80
2021/03/24 10:56:01;;;;;;;1.67;0.40;;;;;;;9.83;100.00;100107.88;5087958;28;20043;-81
2021/03/24 10:59:26;;;;;;;1.05;0.63;;;;;;;10.03;100.00;100104.63;5088830;28;20094;-80
2021/03/24 11:02:38;;;;;;;1.00;0.52;;;;;;;10.18;100.00;100107.59;5087684;28;20070;-82
2021/03/24 11:06:05;;;;;;;4.70;0.28;;;;;;;10.19;100.00;100123.81;5087565;28;20044;-80
2021/03/24 11:09:12;;;;;;;0.30;0.30;;;;;;;10.22;100.00;100122.84;5087661;28;20083;-81
2021/03/24 11:12:21;;;;;;;1.27;0.28;;;;;;;10.32;100.00;100118.06;5087679;28;20051;-81
2021/03/24 11:15:48;;;;;;;0.10;0.10;;;;;;;10.39;100.00;100118.53;5088174;28;20063;-80
2021/03/24 11:18:55;;;;;;;0.10;0.10;;;;;;;10.49;100.00;100120.03;5074741;28;20055;-81
2021/03/24 11:22:14;;;;;;;5.22;0.20;;;;;;;10.72;100.00;100126.16;5074697;28;20052;-82
2021/03/24 11:25:25;;;;;;;0.47;0.32;;;;;;;10.79;100.00;100120.22;5074451;28;20051;-81
2021/03/24 11:28:36;;;;;;;1.75;0.20;;;;;;;10.74;100.00;100112.53;5075170;28;20067;-78
2021/03/24 11:31:57;;;;;;;3.97;0.45;;;;;;;10.65;100.00;100111.28;5074509;28;20047;-79
2021/03/24 11:35:21;;;;;;;0.30;0.20;;;;;;;10.49;100.00;100114.47;5074651;28;20059;-81
2021/03/24 11:38:34;;;;;;;0.35;0.35;;;;;;;10.34;100.00;100113.56;5074295;28;20063;-89
2021/03/24 11:41:40;;;;;;;0.10;0.10;;;;;;;10.25;100.00;100110.03;5074380;28;20044;-82
2021/03/24 11:44:46;;;;;;;3.50;0.60;;;;;;;10.32;100.00;100121.63;5075105;28;20044;-81
2021/03/24 11:47:59;;;;;;;0.20;0.20;;;;;;;10.50;100.00;100110.41;5073990;28;20499;-79
2021/03/24 11:51:05;;;;;;;0.73;0.50;;;;;;;10.84;100.00;100116.81;5073569;28;20051;-83
2021/03/24 11:54:15;;;;;;;0.25;0.25;;;;;;;11.09;100.00;100105.22;5074217;28;20051;-82
2021/03/24 11:57:45;;;;;;;2.80;1.10;;;;;;;10.99;100.00;100109.31;5073897;28;20040;-78
2021/03/24 12:01:24;;;;;;;5.78;0.80;;;;;;;10.98;100.00;100116.13;5073989;28;20043;-78
2021/03/24 12:04:34;;;;;;;0.80;0.50;;;;;;;10.84;100.00;100111.25;5073959;28;20048;-78
2021/03/24 12:07:46;;;;;;;0.47;0.35;;;;;;;10.57;100.00;100107.31;5073836;28;20056;-81
2021/03/24 12:11:03;;;;;;;17.30;0.75;;;;;;;10.51;100.00;100102.84;5057386;28;20048;-75
2021/03/24 12:14:13;;;;;;;0.10;0.10;;;;;;;10.60;100.00;100102.81;5050110;28;20828;-76
2021/03/24 12:17:32;;;;;;;0.93;0.70;;;;;;;10.66;100.00;100096.16;5052397;28;21020;-76
2021/03/24 12:21:06;;;;;;;7.72;0.43;;;;;;;10.83;100.00;100090.22;5045948;28;20491;-77
2021/03/24 12:24:25;;;;;;;2.50;0.43;;;;;;;10.94;100.00;100099.56;5046198;28;20039;-77
2021/03/24 12:27:33;;;;;;;0.15;0.15;;;;;;;10.94;100.00;100087.66;5045070;28;20071;-78
2021/03/24 12:30:46;;;;;;;0.55;0.43;;;;;;;10.89;100.00;100096.66;5047045;28;20146;-77
2021/03/24 12:33:54;;;;;;;2.60;0.15;;;;;;;10.74;100.00;100095.81;5047018;28;20043;-77
2021/03/24 12:37:00;;;;;;;0.20;0.20;;;;;;;10.84;100.00;100091.72;5047373;28;20044;-78
2021/03/24 12:40:10;;;;;;;0.20;0.20;;;;;;;11.02;100.00;100077.72;5046154;28;20605;-80
2021/03/24 12:43:21;;;;;;;4.75;0.30;;;;;;;11.17;100.00;100084.91;5045538;28;20145;-79
2021/03/24 12:46:25;;;;;;;16.90;1.20;;;;;;;11.37;100.00;100087.06;5034814;28;20059;-80
2021/03/24 12:49:34;;;;;;;1.55;0.40;;;;;;;11.51;100.00;100091.94;5034548;28;20055;-78
2021/03/24 12:53:14;;;;;;;2.85;0.50;;;;;;;11.67;100.00;100085.19;5057959;28;20052;-78
2021/03/24 12:56:24;;;;;;;4.40;0.30;;;;;;;12.09;100.00;100083.72;5072746;28;20047;-78
2021/03/24 12:59:51;;;;;;;0.10;0.10;;;;;;;12.41;100.00;100084.03;5072630;28;20055;-79
2021/03/24 13:03:13;;;;;;;6.75;0.40;;;;;;;12.37;100.00;100089.78;5071699;28;20047;-85
2021/03/24 13:06:52;;;;;;;2.72;0.10;;;;;;;12.08;100.00;100087.75;5072058;28;20048;-86
2021/03/24 13:10:16;;;;;;;0.95;0.38;;;;;;;11.66;100.00;100078.81;5072348;28;20059;-80
2021/03/24 13:13:35;;;;;;;0.22;0.22;;;;;;;11.51;100.00;100074.44;5072012;28;20389;-79
2021/03/24 13:16:48;;;;;;;0.57;0.10;;;;;;;11.57;100.00;100076.09;5072004;28;20703;-79
2021/03/24 13:20:01;;;;;;;2.17;0.65;;;;;;;11.68;100.00;100064.41;5072446;28;20056;-81
2021/03/24 13:23:35;;;;;;;0.10;0.10;;;;;;;11.50;100.00;100065.28;5072449;28;20055;-81
2021/03/24 13:26:39;;;;;;;1.77;0.20;;;;;;;11.42;100.00;100064.91;5073036;28;20499;-80
2021/03/24 13:30:03;;;;;;;1.83;0.35;;;;;;;11.42;100.00;100061.34;5073224;28;20256;-80
2021/03/24 13:33:32;;;;;;;0.20;0.20;;;;;;;11.55;100.00;100059.06;5072253;28;20043;-79
2021/03/24 13:36:43;;;;;;;0.20;0.15;;;;;;;11.68;100.00;100062.41;5072762;28;20515;-82
2021/03/24 13:39:55;;;;;;;0.28;0.28;;;;;;;11.74;100.00;100059.69;5072404;28;20063;-81
2021/03/24 13:43:11;;;;;;;0.52;0.20;;;;;;;11.85;100.00;100043.16;5072456;28;20044;-79
2021/03/24 13:46:27;;;;;;;0.43;0.43;;;;;;;11.84;100.00;100044.44;5071851;28;20067;-79
2021/03/24 13:49:36;;;;;;;0.10;0.10;;;;;;;11.96;100.00;100049.72;5072472;28;20052;-81
2021/03/24 13:52:51;;;;;;;0.68;0.22;;;;;;;12.00;100.00;100050.31;5073013;28;20048;-80
2021/03/24 13:56:09;;;;;;;0.70;0.10;;;;;;;11.98;100.00;100058.38;5072933;28;20055;-79
2021/03/24 13:59:25;;;;;;;1.58;0.63;;;;;;;11.94;100.00;100051.47;5071511;28;20059;-79
2021/03/24 14:02:50;;;;;;;0.30;0.20;;;;;;;11.92;100.00;100043.56;5070831;28;20044;-78
2021/03/24 14:06:09;;;;;;;6.68;0.70;;;;;;;12.00;100.00;100044.72;5070750;28;20044;-79
2021/03/24 14:09:35;;;;;;;1.25;0.20;;;;;;;12.11;100.00;100044.91;5071540;28;20055;-78
2021/03/24 14:13:04;;;;;;;0.30;0.15;;;;;;;12.26;100.00;100038.56;5071424;28;20047;-78
2021/03/24 14:16:32;;;;;;;5.18;0.45;;;;;;;12.46;100.00;100035.84;5070413;28;20051;-78
2021/03/24 14:19:45;;;;;;;3.13;0.20;;;;;;;12.11;100.00;100042.13;5070634;28;20055;-79
2021/03/24 14:23:17;;;;;;;0.47;0.20;;;;;;;12.09;100.00;100036.25;5070307;28;20051;-79
2021/03/24 14:26:30;;;;;;;;;;;;;;;12.05;100.00;100035.69;5071468;28;20055;-79
2021/03/24 14:29:39;;;;;;;1.30;0.30;;;;;;;12.18;100.00;100032.59;5070291;28;19916;-79
2021/03/24 14:32:42;;;;;;;1.55;0.45;;;;;;;12.28;100.00;100024.91;5070188;28;20043;-76
2021/03/24 14:36:10;;;;;;;6.68;0.50;;;;;;;12.38;100.00;100029.13;5070361;28;20043;-82
2021/03/24 14:39:45;;;;;;;2.78;1.00;;;;;;;12.32;100.00;100039.44;5070945;28;20055;-85
2021/03/24 14:42:58;;;;;;;1.63;0.32;;;;;;;11.99;100.00;100026.44;5070483;28;20048;-85
2021/03/24 14:46:08;;;;;;;1.52;0.93;;;;;;;11.97;100.00;100017.78;5070043;28;20039;-80
2021/03/24 14:49:38;;;;;;;1.42;0.25;;;;;;;12.06;100.00;100012.09;5070288;28;20515;-81
2021/03/24 14:52:48;;;;;;;2.03;0.25;;;;;;;12.01;100.00;100012.00;5062408;28;20043;-80
2021/03/24 14:56:10;;;;;;;4.88;0.65;;;;;;;11.71;100.00;100005.66;5074584;28;20048;-80
2021/03/24 14:59:31;;;;;;;2.28;0.40;;;;;;;11.55;100.00;100005.28;5075643;28;20051;-85
2021/03/24 15:02:36;;;;;;;1.05;0.20;;;;;;;11.48;100.00;100006.44;5055520;28;20063;-81
2021/03/24 15:05:45;;;;;;;5.57;1.38;;;;;;;11.47;100.00;99995.75;5055031;28;20044;-78
2021/03/24 15:08:56;;;;;;;4.50;0.80;;;;;;;11.53;100.00;100011.34;5055335;28;20056;-79
2021/03/24 15:12:26;;;;;;;1.02;0.70;;;;;;;11.48;100.00;100009.22;5055162;28;20056;-74
2021/03/24 15:15:39;;;;;;;1.30;0.40;;;;;;;11.34;100.00;100004.41;5054781;28;20044;-75
2021/03/24 15:19:27;;;;;;;3.30;0.47;;;;;;;11.44;100.00;100014.22;5056841;28;20416;-76
2021/03/24 15:22:45;;;;;;;5.20;1.08;;;;;;;11.68;100.00;100009.38;5055433;28;20060;-75
2021/03/24 15:25:56;;;;;;;1.75;0.35;;;;;;;11.62;100.00;100013.28;5054614;28;20048;-76
2021/03/24 15:29:09;;;;;;;5.00;0.55;;;;;;;11.44;100.00;100008.66;5055379;28;20493;-77
2021/03/24 15:32:16;;;;;;;2.42;0.50;;;;;;;11.26;100.00;100003.22;5054683;28;20060;-79
2021/03/24 15:35:22;;;;;;;1.40;0.65;;;;;;;11.35;100.00;100003.13;5054366;28;20401;-79
2021/03/24 15:38:33;;;;;;;1.95;0.47;;;;;;;11.47;100.00;100013.28;5054516;28;20048;-79
2021/03/24 15:41:56;;;;;;;3.92;0.80;;;;;;;11.48;100.00;100003.66;5054463;28;20048;-78
2021/03/24 15:45:26;;;;;;;0.55;0.40;;;;;;;11.40;100.00;100014.41;5054311;28;20048;-76
2021/03/24 15:48:34;;;;;;;1.30;0.65;;;;;;;11.44;100.00;100008.66;5054184;28;20056;-77
2021/03/24 15:51:42;;;;;;;1.02;0.55;;;;;;;11.39;100.00;100006.53;5054370;28;20060;-81
2021/03/24 15:55:14;;;;;;;5.35;0.75;;;;;;;11.17;100.00;100000.50;5054254;28;20640;-79
2021/03/24 15:58:29;;;;;;;0.85;0.30;;;;;;;11.01;100.00;100006.50;5063039;28;20089;-80
2021/03/24 16:01:57;;;;;;;15.95;1.30;;;;;;;10.87;100.00;100004.44;5074936;28;20048;-83
2021/03/24 16:05:17;;;;;;;7.05;0.68;;;;;;;10.82;100.00;100019.00;5074355;28;20392;-79
2021/03/24 16:08:36;;;;;;;6.47;0.57;;;;;;;10.97;100.00;100014.25;5074721;28;20051;-79
2021/03/24 16:11:44;;;;;;;1.42;0.60;;;;;;;11.09;100.00;100010.47;5075061;28;20100;-77
2021/03/24 16:15:13;;;;;;;8.75;0.95;;;;;;;11.29;100.00;100021.78;5074038;28;20060;-77
2021/03/24 16:18:51;;;;;;;1.73;0.98;;;;;;;11.42;100.00;100022.28;5057900;28;20055;-78
2021/03/24 16:22:27;;;;;;;2.45;1.02;;;;;;;11.45;100.00;100026.94;5045250;28;20056;-81
2021/03/24 16:25:52;;;;;;;0.50;0.38;;;;;;;11.53;100.00;100019.72;5051476;28;20048;-80
2021/03/24 16:29:01;;;;;;;6.55;0.93;;;;;;;11.56;100.00;100024.34;5054307;28;20048;-81
2021/03/24 16:32:29;;;;;;;4.40;1.13;;;;;;;11.51;100.00;100030.59;5053415;28;20056;-77
2021/03/24 16:35:42;;;;;;;0.95;0.30;;;;;;;11.34;100.00;100021.13;5053430;28;20052;-79
2021/03/24 16:39:10;;;;;;;5.90;1.02;;;;;;;11.14;100.00;100023.75;5054286;28;20437;-76
2021/03/24 16:42:48;;;;;;;3.97;1.70;;;;;;;10.92;100.00;100034.41;5071526;28;20070;-79
2021/03/24 16:45:55;;;;;;;2.78;0.75;;;;;;;10.71;100.00;100033.47;5053886;28;20047;-78
2021/03/24 16:49:28;;;;;;;7.43;1.27;;;;;;;10.60;100.00;100033.19;5065564;28;20059;-80
2021/03/24 16:52:44;;;;;;;3.92;0.70;;;;;;;10.50;100.00;100038.03;5073018;28;20047;-78
2021/03/24 16:56:19;;;;;;;1.05;0.38;;;;;;;10.43;100.00;100032.81;5073158;28;20043;-77
2021/03/24 17:00:01;;;;;;;1.10;0.43;;;;;;;10.36;100.00;100035.94;5073783;28;20051;-78
2021/03/24 17:03:36;;;;;;;2.75;0.45;;;;;;;10.29;100.00;100041.81;5072604;28;20397;-78
2021/03/24 17:06:52;;;;;;;5.05;1.45;;;;;;;10.21;100.00;100039.84;5072761;28;20132;-78
2021/03/24 17:10:01;;;;;;;1.63;0.43;;;;;;;10.13;100.00;100035.84;5073356;28;20047;-77
2021/03/24 17:13:31;;;;;;;3.40;0.90;;;;;;;9.94;100.00;100040.63;5072329;28;20472;-78
2021/03/24 17:17:03;;;;;;;8.98;0.93;;;;;;;9.70;100.00;100042.56;5072184;28;20047;-78
2021/03/24 17:20:20;;;;;;;11.50;1.20;;;;;;;9.46;100.00;100045.19;5072385;28;20067;-77
2021/03/24 17:23:32;;;;;;;3.42;0.60;;;;;;;9.27;100.00;100048.44;5073004;28;20066;-78
2021/03/24 17:26:37;;;;;;;0.45;0.25;;;;;;;9.14;100.00;100054.88;5072316;28;20384;-79
2021/03/24 17:29:59;;;;;;;2.90;0.55;;;;;;;9.01;100.00;100056.22;5072388;28;20052;-78
2021/03/24 17:33:20;;;;;;;;;;;;;;;8.83;100.00;100054.22;5072513;28;20052;-78
2021/03/24 17:36:59;;;;;;;0.22;0.22;;;;;;;8.68;100.00;100058.00;5072463;28;19912;-80
2021/03/24 17:40:16;;;;;;;0.30;0.30;;;;;;;8.60;100.00;100063.06;5072237;28;20056;-79
2021/03/24 18:06:33;;;;;;;2.95;0.52;;;;;;;7.92;100.00;100064.09;5031436;27;20406;-78
2021/03/24 18:09:39;;;;;;;7.72;1.27;;;;;;;7.76;100.00;100055.94;5026712;28;20092;-78
2021/03/24 18:12:48;;;;;;;2.58;1.10;;;;;;;7.58;100.00;100062.13;5026627;28;20073;-78
2021/03/24 18:15:51;;;;;;;1.90;0.90;;;;;;;7.46;100.00;100056.66;5026653;28;20076;-79
2021/03/24 18:18:55;;;;;;;3.47;0.93;;;;;;;7.33;100.00;100059.47;5026519;28;20069;-79
2021/03/24 18:21:59;;;;;;;10.30;1.60;;;;;;;7.29;100.00;100064.34;5026582;28;20060;-78
2021/03/24 18:29:19;;;;;;;0.65;0.65;;;;;;;7.28;100.00;100071.09;5066382;27;20396;-78
2021/03/24 18:32:26;;;;;;;1.08;0.73;;;;;;;7.14;100.00;100071.59;5056074;28;20068;-78
2021/03/24 18:35:36;;;;;;;3.53;0.95;;;;;;;7.00;100.00;100063.75;5054087;28;20064;-77
2021/03/24 18:38:42;;;;;;;1.85;0.50;;;;;;;7.01;100.00;100068.09;5040179;28;20842;-81
2021/03/24 18:41:47;;;;;;;3.33;0.93;;;;;;;7.06;100.00;100070.28;5012999;28;20060;-77
2021/03/24 18:44:57;;;;;;;1.45;0.50;;;;;;;6.97;100.00;100075.72;5017299;28;20052;-78
2021/03/24 18:48:20;;;;;;;6.82;1.55;;;;;;;6.80;100.00;100077.06;5055190;28;20064;-82
2021/03/24 18:51:35;;;;;;;0.47;0.40;;;;;;;6.68;100.00;100075.09;5060061;28;20060;-84
2021/03/24 18:54:42;;;;;;;0.73;0.73;;;;;;;6.59;100.00;100074.97;5072333;28;20053;-82
2021/03/24 18:57:47;;;;;;;1.67;0.88;;;;;;;6.40;100.00;100079.53;5058276;28;20056;-81
2021/03/24 19:00:57;;;;;;;4.57;2.05;;;;;;;6.25;100.00;100081.16;5062527;28;20409;-82
2021/03/24 19:04:01;;;;;;;3.72;1.40;;;;;;;6.12;100.00;100083.13;5068335;28;20060;-82
2021/03/24 19:07:13;;;;;;;4.20;0.88;;;;;;;5.99;100.00;100083.13;5059581;28;20060;-86
2021/03/24 19:10:21;;;;;;;0.50;0.50;;;;;;;5.85;100.00;100077.97;5067937;28;20056;-83
2021/03/24 19:13:41;;;;;;;0.75;0.75;;;;;;;5.79;100.00;100081.69;5053581;28;20055;-82